createdAt,value
2022-09-14T00:01:41.896Z,0.80
2022-09-14T00:04:12.999Z,1.00
2022-09-14T00:09:19.587Z,1.20
2022-09-14T00:11:47.638Z,0.90
2022-09-14T00:14:16.150Z,0.90
2022-09-14T00:16:44.809Z,0.70
2022-09-14T00:19:18.859Z,0.90
2022-09-14T00:21:49.838Z,0.65
2022-09-14T00:24:19.689Z,1.02
2022-09-14T00:26:47.653Z,0.80
2022-09-14T00:29:16.027Z,0.65
2022-09-14T00:31:43.941Z,0.90
2022-09-14T00:34:14.542Z,1.40
2022-09-14T00:36:48.387Z,1.60
2022-09-14T00:39:17.716Z,1.92
2022-09-14T00:41:49.337Z,1.70
2022-09-14T00:44:55.207Z,2.10
2022-09-14T00:47:23.626Z,1.80
2022-09-14T00:49:52.238Z,1.23
2022-09-14T00:52:22.888Z,1.23
2022-09-14T00:54:53.536Z,1.20
2022-09-14T00:57:24.099Z,1.30
2022-09-14T00:59:53.477Z,0.90
2022-09-14T01:02:23.280Z,1.02
2022-09-14T01:04:52.046Z,1.45
2022-09-14T01:07:30.677Z,1.10
2022-09-14T01:10:18.716Z,0.90
2022-09-14T01:12:56.547Z,1.15
2022-09-14T01:15:32.256Z,0.95
2022-09-14T01:18:09.822Z,0.85
2022-09-14T01:20:42.627Z,0.98
2022-09-14T01:23:17.765Z,0.82
2022-09-14T01:26:04.066Z,0.68
2022-09-14T01:28:41.368Z,1.05
2022-09-14T01:31:15.539Z,1.00
2022-09-14T01:33:48.288Z,0.80
2022-09-14T01:36:18.116Z,0.85
2022-09-14T01:38:50.926Z,1.00
2022-09-14T01:41:24.066Z,0.80
2022-09-14T01:43:58.280Z,1.02
2022-09-14T01:46:30.009Z,0.75
2022-09-14T01:49:04.149Z,0.95
2022-09-14T01:51:40.785Z,0.60
2022-09-14T01:54:16.337Z,0.57
2022-09-14T01:56:50.128Z,0.82
2022-09-14T01:59:22.989Z,0.57
2022-09-14T02:01:56.175Z,0.70
2022-09-14T02:04:38.569Z,0.80
2022-09-14T02:07:06.980Z,0.68
2022-09-14T02:09:34.949Z,0.63
2022-09-14T02:12:03.838Z,0.80
2022-09-14T02:14:33.559Z,0.88
2022-09-14T02:17:01.989Z,0.93
2022-09-14T02:19:36.150Z,0.90
2022-09-14T02:22:04.530Z,1.25
2022-09-14T02:24:32.497Z,1.10
2022-09-14T02:27:01.339Z,1.00
2022-09-14T02:29:29.459Z,0.98
2022-09-14T02:32:12.880Z,1.13
2022-09-14T02:34:52.779Z,1.10
2022-09-14T02:37:25.799Z,1.10
2022-09-14T02:40:01.927Z,1.00
2022-09-14T02:42:37.569Z,0.90
2022-09-14T02:45:16.328Z,1.10
2022-09-14T02:47:55.728Z,1.02
2022-09-14T02:50:29.140Z,1.00
2022-09-14T02:53:04.179Z,0.80
2022-09-14T02:55:37.650Z,1.00
2022-09-14T02:58:08.769Z,1.15
2022-09-14T03:00:40.481Z,1.00
2022-09-14T03:03:12.378Z,1.27
2022-09-14T03:05:40.919Z,1.27
2022-09-14T03:08:10.777Z,1.27
2022-09-14T03:10:41.819Z,1.50
2022-09-14T03:13:09.939Z,1.30
2022-09-14T03:15:38.061Z,0.90
2022-09-14T03:18:10.029Z,1.20
2022-09-14T03:20:42.298Z,1.10
2022-09-14T03:23:11.549Z,0.93
2022-09-14T03:25:41.651Z,0.80
2022-09-14T03:28:10.617Z,0.98
2022-09-14T03:30:38.622Z,0.93
2022-09-14T03:33:06.948Z,1.02
2022-09-14T03:35:35.042Z,1.30
2022-09-14T03:38:04.680Z,1.17
2022-09-14T03:40:32.693Z,1.10
2022-09-14T03:43:00.879Z,0.80
2022-09-14T03:45:28.880Z,0.93
2022-09-14T03:47:56.918Z,1.20
2022-09-14T03:50:24.898Z,0.93
2022-09-14T03:52:53.135Z,1.15
2022-09-14T03:55:22.619Z,0.80
2022-09-14T03:57:54.400Z,1.23
2022-09-14T04:00:23.119Z,1.20
2022-09-14T04:02:51.142Z,1.00
2022-09-14T04:05:21.823Z,0.77
2022-09-14T04:07:50.250Z,1.80
2022-09-14T04:10:18.452Z,0.80
2022-09-14T04:12:47.980Z,0.93
2022-09-14T04:15:15.938Z,0.90
2022-09-14T04:17:44.079Z,1.05
2022-09-14T04:20:12.118Z,1.00
2022-09-14T04:22:40.240Z,1.05
2022-09-14T04:25:08.919Z,1.13
2022-09-14T04:27:36.919Z,1.35
2022-09-14T04:30:07.381Z,1.10
2022-09-14T04:32:35.397Z,1.10
2022-09-14T04:35:03.739Z,1.55
2022-09-14T04:37:33.083Z,1.10
2022-09-14T04:40:01.093Z,1.10
2022-09-14T04:42:31.480Z,1.15
2022-09-14T04:44:59.478Z,1.05
2022-09-14T04:47:30.103Z,1.02
2022-09-14T04:49:58.739Z,1.30
2022-09-14T04:52:26.723Z,1.20
2022-09-14T04:54:54.789Z,0.98
2022-09-14T04:57:22.829Z,1.33
2022-09-14T04:59:51.030Z,0.95
2022-09-14T05:02:19.233Z,1.02
2022-09-14T05:04:48.933Z,1.17
2022-09-14T05:07:17.200Z,1.00
2022-09-14T05:09:45.681Z,1.27
2022-09-14T05:12:13.970Z,1.20
2022-09-14T05:14:41.979Z,1.20
2022-09-14T05:17:11.360Z,1.27
2022-09-14T05:19:39.432Z,1.15
2022-09-14T05:22:09.089Z,1.75
2022-09-14T05:24:37.100Z,1.08
2022-09-14T05:27:05.269Z,1.00
2022-09-14T05:29:33.459Z,0.98
2022-09-14T05:32:01.678Z,1.20
2022-09-14T05:34:29.599Z,1.35
2022-09-14T05:36:57.559Z,1.55
2022-09-14T05:39:27.098Z,0.82
2022-09-14T05:41:55.079Z,1.30
2022-09-14T05:44:23.150Z,1.02
2022-09-14T05:46:51.271Z,1.17
2022-09-14T05:49:19.756Z,1.30
2022-09-14T05:51:49.228Z,1.23
2022-09-14T05:54:17.790Z,1.38
2022-09-14T05:56:47.779Z,1.63
2022-09-14T05:59:16.357Z,2.00
2022-09-14T06:01:44.721Z,1.23
2022-09-14T06:04:13.128Z,1.30
2022-09-14T06:06:49.199Z,1.70
2022-09-14T06:09:24.759Z,1.42
2022-09-14T06:11:54.498Z,1.80
2022-09-14T06:14:22.887Z,1.38
2022-09-14T06:16:51.076Z,1.00
2022-09-14T06:19:19.589Z,1.30
2022-09-14T06:21:47.893Z,1.70
2022-09-14T06:24:16.301Z,1.35
2022-09-14T06:26:44.672Z,1.60
2022-09-14T06:29:15.220Z,0.90
2022-09-14T06:31:43.569Z,1.40
2022-09-14T06:34:12.069Z,1.33
2022-09-14T06:36:40.350Z,1.40
2022-09-14T06:39:09.209Z,1.63
2022-09-14T06:41:37.561Z,1.60
2022-09-14T06:44:05.910Z,1.30
2022-09-14T06:46:36.150Z,1.10
2022-09-14T06:49:06.815Z,1.60
2022-09-14T06:51:36.890Z,1.23
2022-09-14T06:54:06.452Z,1.52
2022-09-14T06:56:36.022Z,1.98
2022-09-14T06:59:05.561Z,1.33
2022-09-14T07:01:36.267Z,1.33
2022-09-14T07:04:05.732Z,1.40
2022-09-14T07:06:40.501Z,1.08
2022-09-14T07:09:09.010Z,1.40
2022-09-14T07:11:37.891Z,1.42
2022-09-14T07:14:06.919Z,1.20
2022-09-14T07:16:38.060Z,1.27
2022-09-14T07:19:08.250Z,1.67
2022-09-14T07:21:37.074Z,1.63
2022-09-14T07:24:06.140Z,1.50
2022-09-14T07:26:39.803Z,1.60
2022-09-14T07:29:11.079Z,1.73
2022-09-14T07:31:42.105Z,1.85
2022-09-14T07:34:11.630Z,1.63
2022-09-14T07:36:40.424Z,1.63
2022-09-14T07:39:11.332Z,1.80
2022-09-14T07:41:40.021Z,1.75
2022-09-14T07:44:09.239Z,2.63
2022-09-14T07:46:42.002Z,2.67
2022-09-14T07:49:11.601Z,2.97
2022-09-14T07:51:40.654Z,3.03
2022-09-14T07:54:11.818Z,3.85
2022-09-14T07:56:40.750Z,3.90
2022-09-14T07:59:34.364Z,3.72
2022-09-14T08:02:01.186Z,4.80
2022-09-14T08:04:29.701Z,4.18
2022-09-14T08:06:58.430Z,3.65
2022-09-14T08:09:28.199Z,3.70
2022-09-14T08:11:56.550Z,3.40
2022-09-14T08:14:25.119Z,3.45
2022-09-14T08:16:54.064Z,2.50
2022-09-14T08:19:24.121Z,2.60
2022-09-14T08:21:52.559Z,2.15
2022-09-14T08:24:22.164Z,2.50
2022-09-14T08:26:50.650Z,2.22
2022-09-14T08:29:19.682Z,1.65
2022-09-14T08:31:48.826Z,1.75
2022-09-14T08:34:18.011Z,1.52
2022-09-14T08:36:48.785Z,2.00
2022-09-14T08:39:18.249Z,2.00
2022-09-14T08:41:54.639Z,1.80
2022-09-14T08:47:00.342Z,1.42
2022-09-14T08:49:47.983Z,1.77
2022-09-14T08:52:24.895Z,2.25
2022-09-14T08:54:55.491Z,2.30
2022-09-14T08:57:34.481Z,1.95
2022-09-14T09:00:13.500Z,2.22
2022-09-14T09:03:02.200Z,2.05
2022-09-14T09:05:37.069Z,2.47
2022-09-14T09:08:17.794Z,2.80
2022-09-14T09:10:47.391Z,3.42
2022-09-14T09:13:21.936Z,2.97
2022-09-14T09:15:52.687Z,3.83
2022-09-14T09:18:27.589Z,3.83
2022-09-14T09:21:00.269Z,2.65
2022-09-14T09:23:33.633Z,2.70
2022-09-14T09:26:06.442Z,2.55
2022-09-14T09:28:35.671Z,2.88
2022-09-14T09:31:11.431Z,2.65
2022-09-14T09:34:04.281Z,2.05
2022-09-14T09:36:41.551Z,2.30
2022-09-14T09:39:13.641Z,3.05
2022-09-14T09:41:48.170Z,2.00
2022-09-14T09:44:16.929Z,1.60
2022-09-14T09:46:51.654Z,1.95
2022-09-14T09:49:22.963Z,1.60
2022-09-14T09:51:52.474Z,1.40
2022-09-14T09:54:27.802Z,1.60
2022-09-14T09:56:58.432Z,2.28
2022-09-14T09:59:32.531Z,1.80
2022-09-14T10:02:23.389Z,1.80
2022-09-14T10:05:00.221Z,1.42
2022-09-14T10:07:31.056Z,1.58
2022-09-14T10:10:07.463Z,1.80
2022-09-14T10:15:14.482Z,1.85
2022-09-14T10:18:03.293Z,2.08
2022-09-14T10:20:31.923Z,1.75
2022-09-14T10:23:20.749Z,1.60
2022-09-14T10:25:52.540Z,1.83
2022-09-14T10:28:24.361Z,1.90
2022-09-14T10:30:57.885Z,2.20
2022-09-14T10:33:26.263Z,2.30
2022-09-14T10:36:02.187Z,2.00
2022-09-14T10:38:33.771Z,2.35
2022-09-14T10:41:17.753Z,1.95
2022-09-14T10:44:09.413Z,1.52
2022-09-14T10:46:53.752Z,1.42
2022-09-14T10:49:48.601Z,1.60
2022-09-14T10:52:25.891Z,1.50
2022-09-14T10:55:24.100Z,1.83
2022-09-14T10:58:01.291Z,1.38
2022-09-14T11:00:36.651Z,1.40
2022-09-14T11:03:31.020Z,0.98
2022-09-14T11:06:12.501Z,1.48
2022-09-14T11:08:47.081Z,1.38
2022-09-14T11:11:42.381Z,1.35
2022-09-14T11:14:31.542Z,1.60
2022-09-14T11:17:15.491Z,1.10
2022-09-14T11:19:53.652Z,1.05
2022-09-14T11:22:38.911Z,1.08
2022-09-14T11:25:13.921Z,1.48
2022-09-14T11:27:46.832Z,1.50
2022-09-14T11:30:21.401Z,1.27
2022-09-14T11:32:56.060Z,1.30
2022-09-14T11:35:30.760Z,1.17
2022-09-14T11:38:12.111Z,1.00
2022-09-14T11:40:46.140Z,1.00
2022-09-14T11:43:19.990Z,1.55
2022-09-14T11:45:55.993Z,1.27
2022-09-14T11:48:45.400Z,1.15
2022-09-14T11:51:18.532Z,0.90
2022-09-14T11:53:48.571Z,1.10
2022-09-14T11:56:27.163Z,0.80
2022-09-14T11:59:00.741Z,1.10
2022-09-14T12:01:33.240Z,1.23
2022-09-14T12:04:19.034Z,1.15
2022-09-14T12:06:54.400Z,0.77
2022-09-14T12:09:51.791Z,1.08
2022-09-14T12:12:38.101Z,0.95
2022-09-14T12:15:16.122Z,1.15
2022-09-14T12:17:46.030Z,0.77
2022-09-14T12:20:44.006Z,0.88
2022-09-14T12:23:27.641Z,0.75
2022-09-14T12:26:09.192Z,1.00
2022-09-14T12:28:48.507Z,0.70
2022-09-14T12:31:58.952Z,0.90
2022-09-14T12:34:32.319Z,1.02
2022-09-14T12:37:29.820Z,1.30
2022-09-14T12:40:34.674Z,1.33
2022-09-14T12:43:45.573Z,1.70
2022-09-14T12:46:33.809Z,0.63
2022-09-14T12:49:03.841Z,0.63
2022-09-14T12:51:46.501Z,1.20
2022-09-14T12:54:39.831Z,1.50
2022-09-14T12:57:23.621Z,1.00
2022-09-14T13:00:00.631Z,1.17
2022-09-14T13:02:56.269Z,0.80
2022-09-14T13:05:27.435Z,0.93
2022-09-14T13:07:57.424Z,0.68
2022-09-14T13:10:31.823Z,0.70
2022-09-14T13:13:02.471Z,0.90
2022-09-14T13:15:34.663Z,1.00
2022-09-14T13:18:05.046Z,0.88
2022-09-14T13:20:35.679Z,0.98
2022-09-14T13:23:20.275Z,0.95
2022-09-14T13:25:49.373Z,1.08
2022-09-14T13:28:19.371Z,0.85
2022-09-14T13:30:55.689Z,1.35
2022-09-14T13:33:24.211Z,0.85
2022-09-14T13:35:55.244Z,0.80
2022-09-14T13:38:27.502Z,0.80
2022-09-14T13:41:04.072Z,1.70
2022-09-14T13:43:32.912Z,1.38
2022-09-14T13:46:01.515Z,1.02
2022-09-14T13:48:30.594Z,1.17
2022-09-14T13:50:58.985Z,0.57
2022-09-14T13:53:46.048Z,0.90
2022-09-14T13:56:21.399Z,0.70
2022-09-14T13:58:51.388Z,0.80
2022-09-14T14:01:27.212Z,0.80
2022-09-14T14:03:55.936Z,0.70
2022-09-14T14:06:27.095Z,0.70
2022-09-14T14:09:02.725Z,0.85
2022-09-14T14:11:35.546Z,0.88
2022-09-14T14:14:31.564Z,0.70
2022-09-14T14:17:24.556Z,0.57
2022-09-14T14:19:55.007Z,1.25
2022-09-14T14:22:28.236Z,0.60
2022-09-14T14:25:14.750Z,0.68
2022-09-14T14:30:17.055Z,1.10
2022-09-14T14:32:50.605Z,0.95
2022-09-14T14:35:22.842Z,1.10
2022-09-14T14:37:51.194Z,0.70
2022-09-14T14:40:21.418Z,0.80
2022-09-14T14:42:50.816Z,1.10
2022-09-14T14:45:20.945Z,1.00
2022-09-14T14:47:52.995Z,0.80
2022-09-14T14:50:23.875Z,1.33
2022-09-14T14:52:52.308Z,1.30
2022-09-14T14:55:23.455Z,1.10
2022-09-14T14:57:52.319Z,1.42
2022-09-14T15:00:24.808Z,1.17
2022-09-14T15:02:53.095Z,1.17
2022-09-14T15:05:21.367Z,0.80
2022-09-14T15:07:52.807Z,1.17
2022-09-14T15:10:23.646Z,1.67
2022-09-14T15:12:52.735Z,1.30
2022-09-14T15:15:24.251Z,1.33
2022-09-14T15:17:52.986Z,1.48
2022-09-14T15:20:21.436Z,1.38
2022-09-14T15:22:50.612Z,1.00
2022-09-14T15:25:20.275Z,1.20
2022-09-14T15:27:50.306Z,0.98
2022-09-14T15:30:18.708Z,1.05
2022-09-14T15:32:48.823Z,1.00
2022-09-14T15:35:17.174Z,0.98
2022-09-14T15:37:48.795Z,1.17
2022-09-14T15:40:17.482Z,0.95
2022-09-14T15:42:45.646Z,1.23
2022-09-14T15:45:15.475Z,1.52
2022-09-14T15:47:43.935Z,1.80
2022-09-14T15:50:12.237Z,1.00
2022-09-14T15:52:40.775Z,0.90
2022-09-14T15:55:10.926Z,0.88
2022-09-14T15:57:39.956Z,0.90
2022-09-14T16:00:10.606Z,1.15
2022-09-14T16:02:43.056Z,1.08
2022-09-14T16:05:11.336Z,1.35
2022-09-14T16:07:39.765Z,0.90
2022-09-14T16:10:10.695Z,0.63
2022-09-14T16:12:39.799Z,1.20
2022-09-14T16:15:09.926Z,1.10
2022-09-14T16:17:38.214Z,1.05
2022-09-14T16:20:10.796Z,0.90
2022-09-14T16:22:39.176Z,1.40
2022-09-14T16:25:07.796Z,0.88
2022-09-14T16:27:36.034Z,1.23
2022-09-14T16:30:05.226Z,1.20
2022-09-14T16:32:33.415Z,0.95
2022-09-14T16:35:07.264Z,0.93
2022-09-14T16:37:37.806Z,0.90
2022-09-14T16:40:06.984Z,1.20
2022-09-14T16:42:35.179Z,1.13
2022-09-14T16:45:03.784Z,1.08
2022-09-14T16:47:33.033Z,1.10
2022-09-14T16:50:01.234Z,1.10
2022-09-14T16:52:30.167Z,1.33
2022-09-14T16:54:59.844Z,1.05
2022-09-14T16:57:30.313Z,1.58
2022-09-14T16:59:58.983Z,1.63
2022-09-14T17:02:27.386Z,1.10
2022-09-14T17:04:56.144Z,1.35
2022-09-14T17:07:24.745Z,0.98
2022-09-14T17:09:53.753Z,0.88
2022-09-14T17:12:23.733Z,1.40
2022-09-14T17:14:52.223Z,0.82
2022-09-14T17:17:20.754Z,1.20
2022-09-14T17:19:49.053Z,1.20
2022-09-14T17:22:17.315Z,1.23
2022-09-14T17:24:45.525Z,0.90
2022-09-14T17:27:13.754Z,1.08
2022-09-14T17:29:43.514Z,1.08
2022-09-14T17:32:14.916Z,1.10
2022-09-14T17:34:43.462Z,1.13
2022-09-14T17:37:11.643Z,0.95
2022-09-14T17:39:39.732Z,0.85
2022-09-14T17:42:07.804Z,1.52
2022-09-14T17:44:37.083Z,0.60
2022-09-14T17:47:07.224Z,0.95
2022-09-14T17:49:36.109Z,0.68
2022-09-14T17:52:04.795Z,0.70
2022-09-14T17:54:33.909Z,1.10
2022-09-14T17:57:02.335Z,0.60
2022-09-14T17:59:30.961Z,0.60
2022-09-14T18:01:59.688Z,0.65
2022-09-14T18:04:30.133Z,0.50
2022-09-14T18:06:58.815Z,0.85
2022-09-14T18:09:27.198Z,0.88
2022-09-14T18:11:57.570Z,0.70
2022-09-14T18:14:26.838Z,0.70
2022-09-14T18:16:56.334Z,0.60
2022-09-14T18:19:25.211Z,0.50
2022-09-14T18:21:56.892Z,0.80
2022-09-14T18:24:25.956Z,0.75
2022-09-14T18:26:54.927Z,0.57
2022-09-14T18:29:24.252Z,0.45
2022-09-14T18:31:54.393Z,0.55
2022-09-14T18:34:24.075Z,0.80
2022-09-14T18:36:54.803Z,0.65
2022-09-14T18:39:23.510Z,0.80
2022-09-14T18:41:54.409Z,0.55
2022-09-14T18:44:24.048Z,0.63
2022-09-14T18:46:54.681Z,0.90
2022-09-14T18:49:24.163Z,0.50
2022-09-14T18:51:55.131Z,0.55
2022-09-14T18:54:27.746Z,0.60
2022-09-14T18:56:57.761Z,0.60
2022-09-14T18:59:27.302Z,0.60
2022-09-14T19:01:56.403Z,1.15
2022-09-14T19:04:25.268Z,0.70
2022-09-14T19:06:58.519Z,0.65
2022-09-14T19:09:27.471Z,0.57
2022-09-14T19:11:56.112Z,0.60
2022-09-14T19:14:24.921Z,0.70
2022-09-14T19:16:58.308Z,0.73
2022-09-14T19:19:27.751Z,0.40
2022-09-14T19:21:58.452Z,0.80
2022-09-14T19:24:31.899Z,0.70
2022-09-14T19:27:03.525Z,0.73
2022-09-14T19:29:33.311Z,0.55
2022-09-14T19:32:02.766Z,0.80
2022-09-14T19:34:31.551Z,0.75
2022-09-14T19:37:02.591Z,0.80
2022-09-14T19:39:33.342Z,1.10
2022-09-14T19:42:05.346Z,0.80
2022-09-14T19:44:38.526Z,0.90
2022-09-14T19:47:07.983Z,0.73
2022-09-14T19:49:40.457Z,0.75
2022-09-14T19:52:13.208Z,0.75
2022-09-14T19:57:11.503Z,0.82
2022-09-14T20:02:15.805Z,1.08
2022-09-14T20:04:46.943Z,0.88
2022-09-14T20:07:19.961Z,0.90
2022-09-14T20:09:51.218Z,1.10
2022-09-14T20:12:21.021Z,1.23
2022-09-14T20:14:51.050Z,0.75
2022-09-14T20:17:20.507Z,0.90
2022-09-14T20:19:49.730Z,1.08
2022-09-14T20:22:21.667Z,0.70
2022-09-14T20:24:52.023Z,0.75
2022-09-14T20:27:21.743Z,0.80
2022-09-14T20:29:52.331Z,0.90
2022-09-14T20:32:22.713Z,0.90
2022-09-14T20:34:53.441Z,0.90
2022-09-14T20:37:26.702Z,0.80
2022-09-14T20:39:56.968Z,0.93
2022-09-14T20:42:26.288Z,0.80
2022-09-14T20:44:55.763Z,1.00
2022-09-14T20:47:25.481Z,1.23
2022-09-14T20:49:54.902Z,0.82
2022-09-14T20:52:25.529Z,1.35
2022-09-14T20:54:54.572Z,1.65
2022-09-14T20:57:24.729Z,1.08
2022-09-14T20:59:54.169Z,0.90
2022-09-14T21:02:23.744Z,1.40
2022-09-14T21:04:53.208Z,1.15
2022-09-14T21:07:22.934Z,1.10
2022-09-14T21:09:53.825Z,1.30
2022-09-14T21:12:22.883Z,1.30
2022-09-14T21:14:52.184Z,1.30
2022-09-14T21:17:22.286Z,1.02
2022-09-14T21:19:51.344Z,1.35
2022-09-14T21:22:20.048Z,1.08
2022-09-14T21:24:48.834Z,1.17
2022-09-14T21:27:19.264Z,1.00
2022-09-14T21:29:49.883Z,1.05
2022-09-14T21:32:18.874Z,1.30
2022-09-14T21:34:47.843Z,1.00
2022-09-14T21:37:16.404Z,0.93
2022-09-14T21:39:45.196Z,1.00
2022-09-14T21:42:19.320Z,0.80
2022-09-14T21:44:48.393Z,0.85
2022-09-14T21:47:17.124Z,1.45
2022-09-14T21:49:45.657Z,1.02
2022-09-14T21:52:13.837Z,1.10
2022-09-14T21:54:42.277Z,1.00
2022-09-14T21:57:11.057Z,0.80
2022-09-14T21:59:41.297Z,1.15
2022-09-14T22:02:09.728Z,1.00
2022-09-14T22:04:38.727Z,0.88
2022-09-14T22:07:06.997Z,1.30
2022-09-14T22:09:35.570Z,1.30
2022-09-14T22:12:04.176Z,1.52
2022-09-14T22:14:32.995Z,1.20
2022-09-14T22:17:02.850Z,1.30
2022-09-14T22:19:32.201Z,1.27
2022-09-14T22:22:01.240Z,0.90
2022-09-14T22:24:37.065Z,1.13
2022-09-14T22:27:07.472Z,1.20
2022-09-14T22:29:35.616Z,1.20
2022-09-14T22:32:07.506Z,1.10
2022-09-14T22:34:36.125Z,1.42
2022-09-14T22:37:04.456Z,1.25
2022-09-14T22:39:32.595Z,1.30
2022-09-14T22:42:00.655Z,1.27
2022-09-14T22:44:28.776Z,1.23
2022-09-14T22:46:56.907Z,1.10
2022-09-14T22:49:26.526Z,0.90
2022-09-14T22:51:54.776Z,0.82
2022-09-14T22:54:23.264Z,0.82
2022-09-14T22:56:51.580Z,1.20
2022-09-14T22:59:19.839Z,1.23
2022-09-14T23:01:48.097Z,1.05
2022-09-14T23:04:16.273Z,1.20
2022-09-14T23:06:47.846Z,1.55
2022-09-14T23:09:18.139Z,1.00
2022-09-14T23:11:46.857Z,0.90
2022-09-14T23:14:15.888Z,1.20
2022-09-14T23:16:47.092Z,1.20
2022-09-14T23:19:17.229Z,1.00
2022-09-14T23:21:47.147Z,1.08
2022-09-14T23:24:15.356Z,1.02
2022-09-14T23:26:43.502Z,0.95
2022-09-14T23:29:15.069Z,1.13
2022-09-14T23:31:43.445Z,0.60
2022-09-14T23:34:11.568Z,1.13
2022-09-14T23:36:39.766Z,0.85
2022-09-14T23:39:09.518Z,1.55
2022-09-14T23:41:38.217Z,0.88
2022-09-14T23:44:06.487Z,1.27
2022-09-14T23:46:34.710Z,0.85
2022-09-14T23:49:02.967Z,0.90
2022-09-14T23:51:31.097Z,0.90
2022-09-14T23:53:59.380Z,0.95
2022-09-14T23:56:29.067Z,1.10
2022-09-14T23:58:57.236Z,1.40
